createdAt,value
2023-04-09T00:00:16.729Z,96.71
2023-04-09T00:02:43.495Z,96.79
2023-04-09T00:05:10.435Z,96.83
2023-04-09T00:07:37.178Z,97.06
2023-04-09T00:10:04.106Z,97.38
2023-04-09T00:12:30.886Z,97.44
2023-04-09T00:14:57.796Z,97.44
2023-04-09T00:17:24.740Z,97.58
2023-04-09T00:19:51.581Z,97.52
2023-04-09T00:22:18.264Z,97.40
2023-04-09T00:24:44.964Z,97.42
2023-04-09T00:27:11.707Z,97.36
2023-04-09T00:29:38.509Z,97.82
2023-04-09T00:32:05.723Z,97.69
2023-04-09T00:34:32.576Z,97.85
2023-04-09T00:36:59.277Z,98.12
2023-04-09T00:39:26.468Z,98.10
2023-04-09T00:42:11.360Z,98.16
2023-04-09T00:44:38.047Z,98.30
2023-04-09T00:47:04.912Z,98.26
2023-04-09T00:49:31.615Z,98.64
2023-04-09T00:51:58.438Z,98.49
2023-04-09T00:54:25.201Z,98.83
2023-04-09T00:56:52.089Z,99.21
2023-04-09T00:59:19.523Z,99.29
2023-04-09T01:01:46.502Z,99.48
2023-04-09T01:04:13.280Z,99.46
2023-04-09T01:06:51.919Z,99.50
2023-04-09T01:09:30.065Z,99.60
2023-04-09T01:12:06.040Z,99.95
2023-04-09T01:14:41.878Z,99.75
2023-04-09T01:17:17.469Z,99.61
2023-04-09T01:19:51.703Z,99.71
2023-04-09T01:22:32.403Z,100.00
2023-04-09T01:25:13.165Z,100.00
2023-04-09T01:27:55.606Z,100.00
2023-04-09T01:30:23.391Z,100.00
2023-04-09T01:32:50.799Z,100.00
2023-04-09T01:35:18.458Z,100.00
2023-04-09T01:37:45.253Z,100.00
2023-04-09T01:40:12.385Z,100.00
2023-04-09T01:42:39.411Z,100.00
2023-04-09T01:45:06.979Z,100.00
2023-04-09T01:47:33.985Z,100.00
2023-04-09T01:50:01.221Z,100.00
2023-04-09T01:52:28.061Z,100.00
2023-04-09T01:54:54.726Z,100.00
2023-04-09T01:57:21.441Z,100.00
2023-04-09T01:59:48.132Z,100.00
2023-04-09T02:02:19.527Z,100.00
2023-04-09T02:04:52.059Z,100.00
2023-04-09T02:07:33.531Z,100.00
2023-04-09T02:10:01.085Z,100.00
2023-04-09T02:12:29.634Z,100.00
2023-04-09T02:14:56.396Z,100.00
2023-04-09T02:17:23.168Z,100.00
2023-04-09T02:19:49.976Z,100.00
2023-04-09T02:22:17.398Z,100.00
2023-04-09T02:24:44.451Z,100.00
2023-04-09T02:27:11.183Z,100.00
2023-04-09T02:29:41.757Z,100.00
2023-04-09T02:32:08.513Z,100.00
2023-04-09T02:34:35.367Z,100.00
2023-04-09T02:37:02.103Z,100.00
2023-04-09T02:39:28.777Z,100.00
2023-04-09T02:41:56.337Z,100.00
2023-04-09T02:44:23.030Z,100.00
2023-04-09T02:46:51.657Z,100.00
2023-04-09T02:49:18.469Z,100.00
2023-04-09T02:51:45.214Z,100.00
2023-04-09T02:54:11.972Z,100.00
2023-04-09T02:56:38.697Z,100.00
2023-04-09T02:59:05.400Z,100.00
2023-04-09T03:01:32.165Z,100.00
2023-04-09T03:03:59.036Z,100.00
2023-04-09T03:06:26.765Z,100.00
2023-04-09T03:08:53.581Z,100.00
2023-04-09T03:11:20.387Z,100.00
2023-04-09T03:13:47.070Z,100.00
2023-04-09T03:16:13.794Z,100.00
2023-04-09T03:18:40.513Z,100.00
2023-04-09T03:21:07.995Z,100.00
2023-04-09T03:23:35.505Z,100.00
2023-04-09T03:26:03.343Z,100.00
2023-04-09T03:28:30.136Z,100.00
2023-04-09T03:30:56.923Z,100.00
2023-04-09T03:33:24.314Z,100.00
2023-04-09T03:35:51.033Z,100.00
2023-04-09T03:38:17.686Z,100.00
2023-04-09T03:40:44.363Z,100.00
2023-04-09T03:43:11.025Z,100.00
2023-04-09T03:45:37.786Z,100.00
2023-04-09T03:48:04.547Z,100.00
2023-04-09T03:50:31.231Z,100.00
2023-04-09T03:52:57.887Z,100.00
2023-04-09T03:55:24.589Z,100.00
2023-04-09T03:57:51.246Z,100.00
2023-04-09T04:00:18.014Z,100.00
2023-04-09T04:02:44.900Z,100.00
2023-04-09T04:05:12.380Z,100.00
2023-04-09T04:07:39.205Z,100.00
2023-04-09T04:10:06.990Z,100.00
2023-04-09T04:12:33.653Z,100.00
2023-04-09T04:15:01.273Z,100.00
2023-04-09T04:17:28.066Z,100.00
2023-04-09T04:19:54.728Z,100.00
2023-04-09T04:22:21.460Z,100.00
2023-04-09T04:24:48.147Z,100.00
2023-04-09T04:27:14.805Z,100.00
2023-04-09T04:29:41.484Z,100.00
2023-04-09T04:32:08.162Z,100.00
2023-04-09T04:34:34.944Z,100.00
2023-04-09T04:37:01.634Z,100.00
2023-04-09T04:39:28.289Z,100.00
2023-04-09T04:41:55.082Z,100.00
2023-04-09T04:44:21.757Z,100.00
2023-04-09T04:46:48.440Z,100.00
2023-04-09T04:49:15.104Z,100.00
2023-04-09T04:51:41.787Z,100.00
2023-04-09T04:54:08.497Z,100.00
2023-04-09T04:56:35.219Z,100.00
2023-04-09T04:59:02.048Z,100.00
2023-04-09T05:01:28.725Z,100.00
2023-04-09T05:03:55.650Z,100.00
2023-04-09T05:06:22.586Z,100.00
2023-04-09T05:08:49.263Z,100.00
2023-04-09T05:11:17.125Z,100.00
2023-04-09T05:13:43.835Z,100.00
2023-04-09T05:16:17.613Z,100.00
2023-04-09T05:18:44.347Z,100.00
2023-04-09T05:21:11.086Z,100.00
2023-04-09T05:23:37.786Z,100.00
2023-04-09T05:26:04.487Z,100.00
2023-04-09T05:28:31.285Z,100.00
2023-04-09T05:30:57.950Z,100.00
2023-04-09T05:33:24.704Z,100.00
2023-04-09T05:35:51.519Z,100.00
2023-04-09T05:38:18.244Z,100.00
2023-04-09T05:40:46.019Z,100.00
2023-04-09T05:43:12.690Z,100.00
2023-04-09T05:45:39.454Z,100.00
2023-04-09T05:48:06.452Z,100.00
2023-04-09T05:50:38.161Z,100.00
2023-04-09T05:53:14.422Z,100.00
2023-04-09T05:55:41.147Z,100.00
2023-04-09T05:58:07.847Z,100.00
2023-04-09T06:00:34.724Z,100.00
2023-04-09T06:03:01.492Z,100.00
2023-04-09T06:05:28.646Z,100.00
2023-04-09T06:07:55.486Z,100.00
2023-04-09T06:10:22.229Z,100.00
2023-04-09T06:12:48.903Z,100.00
2023-04-09T06:15:15.814Z,100.00
2023-04-09T06:17:42.610Z,100.00
2023-04-09T06:20:09.917Z,100.00
2023-04-09T06:22:36.822Z,100.00
2023-04-09T06:25:03.687Z,100.00
2023-04-09T06:27:30.361Z,100.00
2023-04-09T06:29:57.066Z,100.00
2023-04-09T06:32:23.783Z,100.00
2023-04-09T06:34:50.512Z,100.00
2023-04-09T06:37:17.193Z,100.00
2023-04-09T06:39:53.941Z,100.00
2023-04-09T06:42:24.741Z,100.00
2023-04-09T06:44:51.847Z,100.00
2023-04-09T06:47:18.606Z,100.00
2023-04-09T06:49:45.563Z,100.00
2023-04-09T06:52:12.376Z,100.00
2023-04-09T06:54:39.068Z,100.00
2023-04-09T06:57:07.581Z,100.00
2023-04-09T06:59:34.263Z,100.00
2023-04-09T07:02:01.326Z,100.00
2023-04-09T07:04:28.077Z,100.00
2023-04-09T07:06:55.463Z,100.00
2023-04-09T07:09:22.177Z,99.99
2023-04-09T07:11:48.827Z,100.00
2023-04-09T07:14:15.605Z,99.42
2023-04-09T07:16:43.155Z,99.42
2023-04-09T07:19:10.099Z,99.36
2023-04-09T07:21:36.763Z,99.05
2023-04-09T07:24:03.563Z,98.67
2023-04-09T07:26:30.487Z,98.88
2023-04-09T07:28:57.224Z,98.59
2023-04-09T07:31:23.978Z,98.06
2023-04-09T07:33:51.316Z,97.82
2023-04-09T07:36:18.117Z,97.75
2023-04-09T07:38:44.823Z,97.41
2023-04-09T07:41:11.875Z,96.95
2023-04-09T07:43:38.928Z,96.28
2023-04-09T07:46:05.785Z,95.90
2023-04-09T07:48:32.712Z,95.72
2023-04-09T07:50:59.400Z,95.21
2023-04-09T07:53:26.246Z,94.79
2023-04-09T07:55:52.939Z,94.57
2023-04-09T07:58:19.608Z,94.17
2023-04-09T08:00:46.322Z,93.63
2023-04-09T08:03:14.079Z,93.01
2023-04-09T08:05:41.488Z,92.52
2023-04-09T08:08:08.179Z,91.70
2023-04-09T08:10:34.866Z,90.83
2023-04-09T08:13:01.564Z,89.84
2023-04-09T08:15:28.266Z,89.04
2023-04-09T08:17:55.156Z,88.14
2023-04-09T08:20:22.003Z,87.34
2023-04-09T08:22:48.880Z,85.74
2023-04-09T08:25:15.577Z,84.14
2023-04-09T08:27:42.240Z,83.13
2023-04-09T08:30:09.690Z,81.93
2023-04-09T08:32:36.493Z,80.93
2023-04-09T08:35:03.310Z,79.98
2023-04-09T08:37:31.334Z,78.64
2023-04-09T08:39:58.107Z,77.09
2023-04-09T08:42:25.480Z,76.47
2023-04-09T08:44:52.218Z,75.71
2023-04-09T08:47:20.788Z,74.88
2023-04-09T08:49:49.396Z,73.33
2023-04-09T08:52:17.910Z,72.36
2023-04-09T08:54:44.661Z,70.79
2023-04-09T08:57:11.384Z,69.85
2023-04-09T08:59:38.205Z,68.66
2023-04-09T09:02:09.765Z,68.05
2023-04-09T09:04:51.132Z,66.90
2023-04-09T09:07:17.916Z,66.33
2023-04-09T09:10:02.576Z,66.22
2023-04-09T09:12:39.459Z,65.65
2023-04-09T09:15:29.101Z,64.09
2023-04-09T09:17:57.732Z,62.25
2023-04-09T09:20:25.387Z,61.29
2023-04-09T09:22:55.076Z,60.82
2023-04-09T09:25:26.590Z,60.04
2023-04-09T09:27:53.933Z,59.26
2023-04-09T09:30:22.459Z,58.41
2023-04-09T09:33:05.992Z,58.61
2023-04-09T09:35:57.086Z,57.09
2023-04-09T09:38:23.884Z,56.32
2023-04-09T09:40:50.749Z,55.93
2023-04-09T09:43:17.505Z,55.41
2023-04-09T09:45:44.870Z,55.60
2023-04-09T09:48:12.622Z,54.91
2023-04-09T09:50:42.108Z,54.31
2023-04-09T09:53:11.253Z,53.89
2023-04-09T09:55:42.638Z,53.67
2023-04-09T09:58:17.332Z,53.32
2023-04-09T10:00:45.328Z,53.40
2023-04-09T10:03:19.295Z,52.16
2023-04-09T10:05:46.179Z,52.03
2023-04-09T10:08:12.982Z,51.30
2023-04-09T10:10:42.513Z,50.77
2023-04-09T10:13:35.505Z,50.90
2023-04-09T10:16:02.565Z,50.80
2023-04-09T10:18:36.629Z,50.06
2023-04-09T10:21:15.072Z,49.25
2023-04-09T10:23:44.454Z,48.76
2023-04-09T10:26:11.482Z,48.44
2023-04-09T10:28:38.776Z,49.08
2023-04-09T10:31:06.993Z,47.46
2023-04-09T10:33:36.912Z,46.09
2023-04-09T10:36:05.916Z,46.24
2023-04-09T10:38:45.986Z,45.99
2023-04-09T10:41:16.821Z,44.90
2023-04-09T10:43:43.960Z,44.90
2023-04-09T10:46:30.183Z,45.87
2023-04-09T10:49:16.613Z,46.68
2023-04-09T10:52:04.306Z,47.62
2023-04-09T10:54:34.041Z,44.56
2023-04-09T10:57:24.751Z,43.54
2023-04-09T10:59:53.591Z,42.59
2023-04-09T11:02:50.170Z,42.74
2023-04-09T11:05:29.033Z,42.43
2023-04-09T11:08:02.345Z,42.39
2023-04-09T11:10:29.545Z,41.87
2023-04-09T11:12:56.316Z,41.64
2023-04-09T11:15:23.028Z,42.19
2023-04-09T11:17:50.323Z,41.53
2023-04-09T11:20:21.467Z,41.26
2023-04-09T11:22:56.043Z,41.38
2023-04-09T11:25:25.449Z,42.37
2023-04-09T11:27:52.827Z,41.80
2023-04-09T11:30:20.049Z,41.40
2023-04-09T11:32:47.293Z,41.33
2023-04-09T11:35:18.074Z,40.46
2023-04-09T11:37:45.427Z,40.20
2023-04-09T11:40:22.989Z,40.22
2023-04-09T11:42:51.561Z,39.89
2023-04-09T11:45:19.064Z,39.75
2023-04-09T11:47:47.080Z,39.65
2023-04-09T11:50:14.868Z,39.88
2023-04-09T11:52:41.975Z,39.92
2023-04-09T11:55:12.516Z,41.05
2023-04-09T11:57:45.118Z,40.46
2023-04-09T12:00:17.168Z,40.73
2023-04-09T12:02:49.109Z,41.18
2023-04-09T12:05:23.600Z,42.38
2023-04-09T12:07:56.460Z,41.98
2023-04-09T12:10:27.332Z,40.38
2023-04-09T12:12:53.993Z,40.57
2023-04-09T12:15:22.764Z,40.73
2023-04-09T12:17:55.293Z,40.69
2023-04-09T12:20:36.352Z,40.04
2023-04-09T12:23:04.617Z,40.29
2023-04-09T12:25:39.173Z,39.72
2023-04-09T12:28:07.344Z,39.51
2023-04-09T12:30:34.383Z,40.24
2023-04-09T12:33:01.633Z,40.11
2023-04-09T12:35:28.662Z,40.54
2023-04-09T12:37:55.944Z,40.97
2023-04-09T12:40:22.977Z,41.06
2023-04-09T12:42:49.818Z,41.37
2023-04-09T12:45:18.606Z,41.17
2023-04-09T12:47:45.645Z,40.90
2023-04-09T12:50:13.623Z,41.00
2023-04-09T12:52:40.395Z,40.65
2023-04-09T12:55:07.595Z,40.81
2023-04-09T12:57:34.813Z,41.33
2023-04-09T13:00:01.627Z,41.27
2023-04-09T13:02:28.551Z,40.96
2023-04-09T13:04:55.317Z,41.50
2023-04-09T13:07:22.873Z,41.28
2023-04-09T13:09:52.758Z,42.48
2023-04-09T13:12:21.694Z,42.99
2023-04-09T13:14:48.754Z,42.52
2023-04-09T13:17:16.402Z,42.59
2023-04-09T13:19:43.199Z,42.97
2023-04-09T13:22:10.674Z,42.34
2023-04-09T13:24:38.040Z,42.53
2023-04-09T13:27:05.980Z,41.92
2023-04-09T13:29:32.734Z,41.75
2023-04-09T13:32:01.841Z,41.82
2023-04-09T13:34:28.549Z,41.89
2023-04-09T13:36:55.549Z,41.95
2023-04-09T13:39:22.219Z,41.52
2023-04-09T13:41:48.917Z,41.79
2023-04-09T13:44:15.980Z,42.18
2023-04-09T13:46:42.688Z,42.07
2023-04-09T13:49:09.416Z,41.98
2023-04-09T13:51:42.219Z,42.08
2023-04-09T13:54:11.358Z,41.70
2023-04-09T13:56:38.990Z,43.00
2023-04-09T13:59:06.604Z,43.04
2023-04-09T14:01:34.194Z,43.60
2023-04-09T14:04:01.175Z,42.67
2023-04-09T14:06:28.245Z,42.27
2023-04-09T14:08:56.050Z,40.82
2023-04-09T14:11:22.820Z,40.82
2023-04-09T14:13:51.737Z,41.15
2023-04-09T14:16:19.813Z,41.42
2023-04-09T14:18:46.669Z,41.79
2023-04-09T14:21:13.595Z,41.68
2023-04-09T14:23:40.655Z,41.93
2023-04-09T14:26:07.463Z,42.08
2023-04-09T14:28:34.207Z,41.76
2023-04-09T14:31:01.391Z,41.72
2023-04-09T14:33:29.602Z,41.19
2023-04-09T14:35:56.494Z,39.70
2023-04-09T14:38:24.385Z,39.74
2023-04-09T14:40:51.731Z,39.93
2023-04-09T14:43:18.761Z,39.85
2023-04-09T14:45:45.507Z,39.12
2023-04-09T14:48:12.192Z,39.97
2023-04-09T14:50:38.950Z,38.92
2023-04-09T14:53:05.970Z,38.70
2023-04-09T14:55:39.098Z,38.70
2023-04-09T14:58:07.915Z,37.69
2023-04-09T15:00:34.844Z,37.28
2023-04-09T15:03:02.070Z,37.05
2023-04-09T15:05:29.000Z,37.20
2023-04-09T15:07:56.300Z,36.84
2023-04-09T15:10:23.001Z,36.51
2023-04-09T15:12:49.852Z,36.30
2023-04-09T15:15:16.781Z,36.55
2023-04-09T15:17:43.571Z,36.18
2023-04-09T15:20:10.920Z,35.87
2023-04-09T15:22:37.633Z,36.09
2023-04-09T15:25:04.593Z,35.83
2023-04-09T15:27:31.343Z,36.47
2023-04-09T15:29:58.068Z,36.07
2023-04-09T15:32:24.831Z,36.54
2023-04-09T15:34:51.656Z,36.60
2023-04-09T15:37:18.372Z,36.32
2023-04-09T15:39:45.046Z,36.77
2023-04-09T15:42:14.184Z,37.12
2023-04-09T15:44:41.630Z,37.42
2023-04-09T15:47:08.294Z,37.90
2023-04-09T15:49:37.023Z,37.32
2023-04-09T15:52:04.154Z,37.58
2023-04-09T15:54:31.053Z,37.35
2023-04-09T15:56:57.772Z,37.60
2023-04-09T15:59:24.574Z,37.87
2023-04-09T16:01:51.498Z,37.88
2023-04-09T16:04:21.041Z,38.05
2023-04-09T16:06:48.214Z,38.14
2023-04-09T16:09:14.927Z,37.97
2023-04-09T16:11:41.648Z,38.53
2023-04-09T16:14:09.449Z,37.07
2023-04-09T16:16:37.058Z,37.24
2023-04-09T16:19:04.021Z,36.99
2023-04-09T16:21:31.295Z,36.77
2023-04-09T16:23:58.089Z,37.06
2023-04-09T16:26:24.790Z,36.96
2023-04-09T16:28:51.912Z,36.84
2023-04-09T16:31:18.931Z,36.47
2023-04-09T16:33:45.670Z,36.77
2023-04-09T16:36:12.352Z,36.76
2023-04-09T16:38:39.336Z,37.61
2023-04-09T16:41:06.576Z,37.68
2023-04-09T16:43:33.661Z,38.03
2023-04-09T16:46:00.571Z,38.14
2023-04-09T16:48:27.339Z,37.88
2023-04-09T16:50:54.140Z,38.38
2023-04-09T16:53:21.067Z,38.70
2023-04-09T16:55:47.759Z,38.42
2023-04-09T16:58:14.490Z,38.37
2023-04-09T17:00:42.120Z,37.81
2023-04-09T17:03:09.171Z,38.32
2023-04-09T17:05:36.179Z,38.71
2023-04-09T17:08:03.124Z,38.42
2023-04-09T17:10:29.881Z,38.06
2023-04-09T17:12:56.688Z,38.20
2023-04-09T17:15:26.063Z,39.16
2023-04-09T17:17:53.887Z,39.32
2023-04-09T17:20:22.850Z,39.21
2023-04-09T17:22:49.572Z,40.12
2023-04-09T17:25:16.617Z,40.34
2023-04-09T17:27:45.416Z,41.06
2023-04-09T17:30:12.456Z,41.59
2023-04-09T17:32:39.730Z,41.31
2023-04-09T17:35:07.778Z,41.59
2023-04-09T17:37:34.846Z,41.83
2023-04-09T17:40:02.018Z,42.40
2023-04-09T17:42:29.896Z,43.02
2023-04-09T17:44:57.098Z,42.62
2023-04-09T17:47:24.123Z,42.68
2023-04-09T17:49:50.942Z,43.41
2023-04-09T17:52:18.104Z,43.32
2023-04-09T17:54:45.609Z,43.21
2023-04-09T17:57:12.640Z,43.40
2023-04-09T17:59:39.608Z,43.91
2023-04-09T18:02:07.439Z,44.04
2023-04-09T18:04:35.609Z,44.53
2023-04-09T18:07:02.801Z,44.47
2023-04-09T18:09:29.497Z,44.92
2023-04-09T18:11:57.967Z,44.38
2023-04-09T18:14:24.938Z,44.49
2023-04-09T18:16:52.068Z,44.69
2023-04-09T18:19:18.821Z,45.31
2023-04-09T18:21:45.659Z,45.64
2023-04-09T18:24:12.467Z,45.59
2023-04-09T18:26:39.186Z,45.20
2023-04-09T18:29:06.114Z,46.05
2023-04-09T18:31:32.981Z,46.07
2023-04-09T18:33:59.748Z,45.86
2023-04-09T18:36:28.433Z,46.49
2023-04-09T18:38:56.184Z,46.69
2023-04-09T18:41:23.833Z,46.67
2023-04-09T18:43:50.641Z,46.70
2023-04-09T18:46:17.933Z,47.13
2023-04-09T18:48:44.679Z,47.11
2023-04-09T18:51:11.646Z,46.97
2023-04-09T18:53:38.363Z,47.36
2023-04-09T18:56:05.440Z,47.41
2023-04-09T18:58:33.885Z,48.10
2023-04-09T19:01:01.598Z,48.02
2023-04-09T19:03:30.775Z,47.67
2023-04-09T19:05:59.854Z,47.75
2023-04-09T19:08:27.514Z,48.02
2023-04-09T19:10:55.765Z,48.30
2023-04-09T19:13:22.492Z,48.59
2023-04-09T19:15:49.280Z,48.23
2023-04-09T19:18:17.220Z,48.30
2023-04-09T19:20:44.058Z,48.81
2023-04-09T19:23:11.042Z,49.15
2023-04-09T19:25:37.795Z,49.21
2023-04-09T19:28:04.525Z,49.49
2023-04-09T19:30:31.265Z,49.59
2023-04-09T19:32:58.045Z,49.59
2023-04-09T19:35:24.965Z,49.31
2023-04-09T19:37:51.787Z,49.95
2023-04-09T19:40:18.621Z,49.51
2023-04-09T19:42:45.501Z,49.50
2023-04-09T19:45:12.671Z,49.65
2023-04-09T19:47:39.724Z,49.86
2023-04-09T19:50:06.778Z,49.67
2023-04-09T19:52:33.513Z,50.27
2023-04-09T19:55:01.272Z,50.50
2023-04-09T19:57:27.938Z,51.01
2023-04-09T19:59:55.281Z,50.98
2023-04-09T20:02:22.509Z,50.60
2023-04-09T20:04:50.711Z,50.74
2023-04-09T20:07:17.418Z,50.79
2023-04-09T20:09:44.171Z,50.56
2023-04-09T20:12:10.890Z,50.84
2023-04-09T20:14:38.488Z,51.20
2023-04-09T20:17:06.364Z,51.03
2023-04-09T20:19:33.577Z,50.98
2023-04-09T20:22:00.475Z,51.61
2023-04-09T20:24:28.368Z,51.37
2023-04-09T20:26:55.275Z,51.23
2023-04-09T20:29:22.057Z,51.08
2023-04-09T20:31:48.798Z,51.28
2023-04-09T20:34:15.614Z,50.97
2023-04-09T20:36:44.039Z,51.56
2023-04-09T20:39:11.822Z,51.47
2023-04-09T20:41:38.786Z,51.19
2023-04-09T20:44:06.363Z,51.33
2023-04-09T20:46:33.030Z,50.88
2023-04-09T20:49:00.976Z,51.29
2023-04-09T20:51:28.477Z,51.15
2023-04-09T20:53:55.374Z,51.33
2023-04-09T20:56:22.154Z,50.97
2023-04-09T20:58:48.871Z,50.93
2023-04-09T21:01:15.926Z,50.95
2023-04-09T21:03:42.894Z,51.40
2023-04-09T21:06:10.085Z,51.63
2023-04-09T21:08:37.424Z,51.27
2023-04-09T21:11:04.689Z,51.29
2023-04-09T21:13:40.357Z,51.33
2023-04-09T21:16:17.959Z,51.13
2023-04-09T21:18:47.807Z,51.49
2023-04-09T21:21:14.616Z,51.36
2023-04-09T21:23:41.724Z,51.53
2023-04-09T21:26:09.204Z,51.55
2023-04-09T21:28:36.063Z,51.63
2023-04-09T21:31:03.302Z,52.18
2023-04-09T21:33:32.652Z,51.83
2023-04-09T21:35:59.428Z,52.13
2023-04-09T21:38:26.290Z,52.15
2023-04-09T21:40:53.154Z,51.90
2023-04-09T21:43:19.962Z,52.02
2023-04-09T21:45:46.840Z,52.33
2023-04-09T21:48:13.884Z,52.25
2023-04-09T21:50:40.925Z,52.26
2023-04-09T21:53:08.408Z,52.43
2023-04-09T21:55:37.282Z,52.44
2023-04-09T21:58:04.035Z,52.66
2023-04-09T22:00:31.061Z,52.70
2023-04-09T22:03:01.502Z,52.72
2023-04-09T22:05:28.833Z,52.71
2023-04-09T22:07:56.096Z,52.85
2023-04-09T22:10:23.019Z,52.88
2023-04-09T22:12:50.172Z,52.75
2023-04-09T22:15:17.422Z,52.98
2023-04-09T22:17:44.371Z,52.53
2023-04-09T22:20:11.328Z,52.85
2023-04-09T22:22:38.141Z,52.20
2023-04-09T22:25:07.137Z,52.61
2023-04-09T22:27:34.458Z,52.33
2023-04-09T22:30:01.130Z,52.69
2023-04-09T22:32:27.993Z,52.50
2023-04-09T22:34:54.889Z,52.37
2023-04-09T22:37:21.801Z,52.32
2023-04-09T22:39:48.930Z,52.67
2023-04-09T22:42:15.836Z,52.36
2023-04-09T22:44:42.904Z,52.23
2023-04-09T22:47:09.756Z,52.52
2023-04-09T22:49:36.445Z,52.55
2023-04-09T22:52:05.958Z,52.64
2023-04-09T22:54:32.683Z,53.07
2023-04-09T22:56:59.405Z,53.09
2023-04-09T22:59:38.999Z,52.86
2023-04-09T23:02:07.362Z,52.84
2023-04-09T23:04:35.142Z,53.21
2023-04-09T23:07:02.594Z,53.21
2023-04-09T23:09:31.071Z,53.10
2023-04-09T23:11:57.758Z,52.92
2023-04-09T23:14:24.485Z,53.23
2023-04-09T23:16:51.491Z,53.02
2023-04-09T23:19:18.188Z,53.01
2023-04-09T23:21:44.908Z,53.28
2023-04-09T23:24:11.986Z,53.00
2023-04-09T23:26:38.704Z,53.53
2023-04-09T23:29:05.500Z,53.57
2023-04-09T23:31:32.346Z,53.83
2023-04-09T23:33:59.196Z,53.73
2023-04-09T23:36:26.330Z,53.94
2023-04-09T23:38:53.021Z,53.85
2023-04-09T23:41:19.741Z,53.94
2023-04-09T23:43:46.986Z,53.60
2023-04-09T23:46:13.665Z,53.86
2023-04-09T23:48:40.469Z,53.86
2023-04-09T23:51:07.260Z,53.91
2023-04-09T23:53:33.957Z,53.74
2023-04-09T23:56:00.895Z,54.04
2023-04-09T23:58:27.573Z,53.99
